Savage Perseverance — WDG9117 — position and weather

sailwx.info

Track history (hours):
 
Tides and Currents Weather Stations Pressure Air Temp Water Temp Dewpoint Dewpoint Depression Visibility Wind Speed Wind Dir Waves Ship Positions

Savage Perseverance

Owner: Savage Inland Marine, Gibson, LA. More information available from US FCC via Universal Licensing System and Coast Guard Vessel Documentation Center.

Last reported at 2017-Sep-23 23:14 UTC. Time now 2017-Sep-24 03:24 UTC.
Position N 29°47' W 095°04'.

Length 21 m.

Type: Towing. MMSI: 367584490.

Date/timePositionNaut miles runAvg speedWind from/ knotsBaromVisibWave heightAir tempDewpointWater temp
2017-Sep-23 23:14N 29°47' W 095°04'0 0.0
2017-Sep-23 22:55N 29°47' W 095°04'0 0.0
2017-Sep-23 22:26N 29°47' W 095°04'0 0.0
2017-Sep-23 21:59N 29°47' W 095°04'0 0.0
2017-Sep-23 21:07N 29°47' W 095°04'0 0.0
2017-Sep-23 20:59N 29°47' W 095°04'2 3.3
2017-Sep-23 20:29N 29°46' W 095°05'3 6.5
2017-Sep-23 19:58N 29°44' W 095°08'5 0.1
2017-Sep-22 00:33N 29°47' W 095°05'1 2.6
2017-Sep-22 00:20N 29°47' W 095°05'3 6.4
2017-Sep-21 23:52N 29°44' W 095°07'3 6.2
2017-Sep-21 23:27N 29°45' W 095°10'  
2017-Sep-19 17:00N 29°43' W 095°14'0 0.0
2017-Sep-19 05:55N 29°43' W 095°14'0 0.0
2017-Sep-19 05:26N 29°43' W 095°14'0 0.0
2017-Sep-19 04:58N 29°43' W 095°14'0 0.0
2017-Sep-19 04:30N 29°43' W 095°14'0 0.0
2017-Sep-19 03:25N 29°43' W 095°14'0 0.0
2017-Sep-19 03:00N 29°43' W 095°14'0 0.0
2017-Sep-19 02:30N 29°43' W 095°14'0 0.0
2017-Sep-19 02:00N 29°43' W 095°14'0 0.0
2017-Sep-19 01:28N 29°43' W 095°14'0 0.2
2017-Sep-18 23:47N 29°44' W 095°14'2 4.8
2017-Sep-18 23:27N 29°44' W 095°12'3 6.3
2017-Sep-18 23:00N 29°44' W 095°09'4 5.5
2017-Sep-18 22:12N 29°47' W 095°05'1 4.4
2017-Sep-18 21:59N 29°47' W 095°04'1 0.3
2017-Sep-18 18:23N 29°46' W 095°05'0 0.0
2017-Sep-18 17:58N 29°46' W 095°05'0 0.0
2017-Sep-18 17:27N 29°46' W 095°05'1 0.4
2017-Sep-18 15:13N 29°46' W 095°05'1 0.0
2017-Sep-16 19:19N 29°47' W 095°05'3 6.2
2017-Sep-16 18:51N 29°44' W 095°03'3 8.5
2017-Sep-16 18:31N 29°42' W 095°01'5 9.0
2017-Sep-16 18:00N 29°38' W 094°58'510.2
2017-Sep-16 17:30N 29°34' W 094°55'  
Track history (hours):
 
Tides and Currents Weather Stations Pressure Air Temp Water Temp Dewpoint Dewpoint Depression Visibility Wind Speed Wind Dir Waves Ship Positions

Savage Perseverance

Owner: Savage Inland Marine, Gibson, LA. More information available from US FCC via Universal Licensing System and Coast Guard Vessel Documentation Center.

Last reported at 2017-Sep-23 23:14 UTC. Time now 2017-Sep-24 03:24 UTC.
Position N 29°47' W 095°04'.

Length 21 m.

Type: Towing. MMSI: 367584490.

Date/timePositionNaut miles runAvg speedWind from/ knotsBaromVisibWave heightAir tempDewpointWater temp
2017-Sep-23 23:14N 29°47' W 095°04'0 0.0
2017-Sep-23 22:55N 29°47' W 095°04'0 0.0
2017-Sep-23 22:26N 29°47' W 095°04'0 0.0
2017-Sep-23 21:59N 29°47' W 095°04'0 0.0
2017-Sep-23 21:07N 29°47' W 095°04'0 0.0
2017-Sep-23 20:59N 29°47' W 095°04'2 3.3
2017-Sep-23 20:29N 29°46' W 095°05'3 6.5
2017-Sep-23 19:58N 29°44' W 095°08'5 0.1
2017-Sep-22 00:33N 29°47' W 095°05'1 2.6
2017-Sep-22 00:20N 29°47' W 095°05'3 6.4
2017-Sep-21 23:52N 29°44' W 095°07'3 6.2
2017-Sep-21 23:27N 29°45' W 095°10'  
2017-Sep-19 17:00N 29°43' W 095°14'0 0.0
2017-Sep-19 05:55N 29°43' W 095°14'0 0.0
2017-Sep-19 05:26N 29°43' W 095°14'0 0.0
2017-Sep-19 04:58N 29°43' W 095°14'0 0.0
2017-Sep-19 04:30N 29°43' W 095°14'0 0.0
2017-Sep-19 03:25N 29°43' W 095°14'0 0.0
2017-Sep-19 03:00N 29°43' W 095°14'0 0.0
2017-Sep-19 02:30N 29°43' W 095°14'0 0.0
2017-Sep-19 02:00N 29°43' W 095°14'0 0.0
2017-Sep-19 01:28N 29°43' W 095°14'0 0.2
2017-Sep-18 23:47N 29°44' W 095°14'2 4.8
2017-Sep-18 23:27N 29°44' W 095°12'3 6.3
2017-Sep-18 23:00N 29°44' W 095°09'4 5.5
2017-Sep-18 22:12N 29°47' W 095°05'1 4.4
2017-Sep-18 21:59N 29°47' W 095°04'1 0.3
2017-Sep-18 18:23N 29°46' W 095°05'0 0.0
2017-Sep-18 17:58N 29°46' W 095°05'0 0.0
2017-Sep-18 17:27N 29°46' W 095°05'1 0.4
2017-Sep-18 15:13N 29°46' W 095°05'1 0.0
2017-Sep-16 19:19N 29°47' W 095°05'3 6.2
2017-Sep-16 18:51N 29°44' W 095°03'3 8.5
2017-Sep-16 18:31N 29°42' W 095°01'5 9.0
2017-Sep-16 18:00N 29°38' W 094°58'510.2
2017-Sep-16 17:30N 29°34' W 094°55'  

Dump ship's entire track history